Time;durP1;ratioP1;P1;durP2;ratioP2;P2;SDS_P1;SDS_P2;PMS_P1;PMS_P2;Temp;Humidity;BMP_temperature;BMP_pressure;BME280_temperature;BME280_humidity;BME280_pressure;Samples;Min_cycle;Max_cycle;Signal;HPM_P1;HPM_P2
2023/01/13 00:01:09;;;;;;;11.43;2.00;;;;;;;8.49;98.05;100401.69;5020831;28;20124;-66
2023/01/13 00:03:35;;;;;;;10.40;1.77;;;;;;;8.46;97.79;100404.19;5021127;28;20578;-66
2023/01/13 00:06:01;;;;;;;11.55;1.75;;;;;;;8.44;97.89;100408.47;5019826;28;20037;-66
2023/01/13 00:08:27;;;;;;;10.20;1.95;;;;;;;8.42;97.66;100409.25;5022758;28;20666;-66
2023/01/13 00:10:52;;;;;;;6.82;1.60;;;;;;;8.38;97.79;100403.09;5019920;28;20716;-66
2023/01/13 00:13:25;;;;;;;10.40;1.90;;;;;;;8.37;96.39;100406.50;5019806;28;20026;-66
2023/01/13 00:16:17;;;;;;;10.90;2.25;;;;;;;8.39;96.40;100404.00;5021702;28;20120;-66
2023/01/13 00:18:44;;;;;;;9.75;2.17;;;;;;;8.35;96.45;100408.22;4998469;28;20056;-66
2023/01/13 00:21:15;;;;;;;7.75;1.77;;;;;;;8.31;96.10;100394.28;5021611;28;20032;-66
2023/01/13 00:23:40;;;;;;;11.88;2.15;;;;;;;8.28;95.41;100380.34;5019601;28;20037;-66
2023/01/13 00:26:13;;;;;;;8.60;1.98;;;;;;;8.24;95.29;100379.41;5020491;28;20040;-66
2023/01/13 00:28:39;;;;;;;11.43;2.22;;;;;;;8.21;95.12;100376.69;5020427;28;20038;-66
2023/01/13 00:31:05;;;;;;;13.70;2.75;;;;;;;8.17;95.17;100365.38;5020880;28;20115;-66
2023/01/13 00:33:30;;;;;;;10.43;2.53;;;;;;;8.15;94.72;100368.75;5019179;28;20399;-66
2023/01/13 00:35:56;;;;;;;11.70;2.10;;;;;;;8.14;93.65;100367.91;5020100;28;20036;-66
2023/01/13 00:38:22;;;;;;;11.82;2.00;;;;;;;8.11;94.10;100354.84;5021414;28;20507;-66
2023/01/13 00:40:59;;;;;;;13.02;2.28;;;;;;;8.10;93.87;100349.63;5019757;28;20033;-66
2023/01/13 00:43:25;;;;;;;13.80;2.47;;;;;;;8.04;93.91;100352.94;5020736;28;20025;-66
2023/01/13 00:45:52;;;;;;;9.45;1.92;;;;;;;8.03;94.14;100352.91;5020365;28;20041;-66
2023/01/13 00:48:19;;;;;;;11.65;2.35;;;;;;;8.00;94.17;100345.91;5020453;28;20029;-66
2023/01/13 00:50:45;;;;;;;11.73;2.00;;;;;;;7.98;94.39;100345.88;5020921;28;20018;-66
2023/01/13 00:53:12;;;;;;;11.45;2.10;;;;;;;7.98;94.14;100347.56;5023139;28;20103;-66
2023/01/13 00:55:38;;;;;;;13.73;2.10;;;;;;;7.97;94.57;100340.63;5023669;28;20041;-66
2023/01/13 00:58:03;;;;;;;16.30;2.50;;;;;;;7.92;94.96;100340.53;5022561;28;20025;-66
2023/01/13 01:00:30;;;;;;;13.05;2.17;;;;;;;7.89;94.70;100342.13;5024234;28;20056;-66
2023/01/13 01:02:56;;;;;;;13.70;2.67;;;;;;;7.89;94.62;100340.41;5023468;28;20037;-66
2023/01/13 01:05:21;;;;;;;13.98;2.78;;;;;;;7.89;94.75;100348.19;5021988;28;20049;-66
2023/01/13 01:07:47;;;;;;;22.08;2.47;;;;;;;7.87;95.32;100362.00;5021861;28;20479;-66
2023/01/13 01:10:12;;;;;;;15.65;2.80;;;;;;;7.87;95.45;100356.81;5022912;28;20566;-66
2023/01/13 01:12:37;;;;;;;12.00;2.25;;;;;;;7.86;95.43;100360.22;5023900;28;20034;-66
2023/01/13 01:15:04;;;;;;;14.18;2.78;;;;;;;7.86;95.41;100370.59;5022781;28;20455;-66
2023/01/13 01:17:30;;;;;;;11.82;2.20;;;;;;;7.84;95.94;100363.66;5024611;28;20033;-66
2023/01/13 01:19:55;;;;;;;13.18;2.45;;;;;;;7.85;96.32;100361.94;5023544;28;20025;-66
2023/01/13 01:22:21;;;;;;;10.48;2.55;;;;;;;7.86;96.85;100366.28;5022948;28;20033;-66
2023/01/13 01:24:46;;;;;;;13.50;2.55;;;;;;;7.86;96.42;100361.09;5024842;28;20765;-66
2023/01/13 01:27:12;;;;;;;12.45;2.22;;;;;;;7.89;96.29;100360.31;5023272;28;20479;-66
2023/01/13 01:29:37;;;;;;;13.15;2.40;;;;;;;7.88;96.41;100362.03;5022023;28;20447;-66
2023/01/13 01:32:02;;;;;;;17.33;2.50;;;;;;;7.89;96.83;100357.72;5022393;28;20037;-66
2023/01/13 01:34:27;;;;;;;14.98;2.60;;;;;;;7.89;96.05;100362.91;5022763;28;20104;-66
2023/01/13 01:36:53;;;;;;;12.55;2.40;;;;;;;7.89;95.79;100366.34;5023370;28;20036;-67
2023/01/13 01:39:18;;;;;;;15.38;2.42;;;;;;;7.89;95.48;100374.13;5023626;28;20546;-66
2023/01/13 01:43:57;;;;;;;13.15;2.25;;;;;;;7.90;94.54;100368.13;5021509;28;20025;-66
2023/01/13 01:44:41;;;;;;;16.73;2.70;;;;;;;7.89;94.83;100373.28;5022842;28;20387;-66
2023/01/13 01:47:09;;;;;;;14.20;2.47;;;;;;;7.86;94.36;100376.66;5023283;28;20025;-66
2023/01/13 01:49:36;;;;;;;12.48;2.65;;;;;;;7.84;94.31;100373.16;5021687;28;20641;-66
2023/01/13 01:52:13;;;;;;;16.95;2.45;;;;;;;7.81;93.76;100379.13;5021707;28;20025;-66
2023/01/13 01:54:47;;;;;;;13.15;2.92;;;;;;;7.78;92.81;100373.84;5021826;28;20517;-66
2023/01/13 01:57:18;;;;;;;13.77;2.50;;;;;;;7.78;92.33;100367.81;5021220;28;20029;-66
2023/01/13 01:59:44;;;;;;;12.88;2.67;;;;;;;7.73;91.74;100370.25;5022529;28;20025;-66
2023/01/13 02:02:10;;;;;;;17.23;3.13;;;;;;;7.72;91.90;100372.81;5022634;28;20038;-66
2023/01/13 02:04:39;;;;;;;14.32;3.13;;;;;;;7.69;91.34;100376.22;5021792;28;20490;-66
2023/01/13 02:07:05;;;;;;;;;;;;;;;7.71;93.33;100360.69;5022782;28;20442;-66
2023/01/13 02:09:32;;;;;;;16.52;3.03;;;;;;;7.67;89.96;100354.53;5022062;28;19917;-66
2023/01/13 02:14:42;;;;;;;15.77;3.13;;;;;;;7.62;89.98;100364.78;5023997;28;20072;-66
2023/01/13 02:17:19;;;;;;;17.05;3.35;;;;;;;7.61;90.04;100359.56;5023379;28;20140;-66
2023/01/13 02:20:03;;;;;;;14.85;3.33;;;;;;;7.56;89.76;100366.31;5022180;28;20450;-66
2023/01/13 02:24:52;;;;;;;19.05;3.28;;;;;;;7.53;89.68;100363.63;5022786;28;20407;-66
2023/01/13 02:26:18;;;;;;;18.38;3.40;;;;;;;7.52;89.47;100359.28;5021063;28;20530;-66
2023/01/13 02:32:47;;;;;;;21.95;3.22;;;;;;;7.49;90.32;100365.28;5019360;28;20468;-66
2023/01/13 02:35:23;;;;;;;11.90;2.90;;;;;;;7.45;89.80;100371.22;5017608;28;20029;-66
2023/01/13 02:37:50;;;;;;;15.02;2.88;;;;;;;7.45;89.93;100361.72;5019456;28;20416;-66
2023/01/13 02:40:27;;;;;;;14.02;2.72;;;;;;;7.44;90.66;100364.25;5020489;28;20133;-66
2023/01/13 02:46:16;;;;;;;17.58;3.10;;;;;;;7.41;91.36;100341.72;5020186;28;20036;-66
2023/01/13 02:48:44;;;;;;;18.48;3.20;;;;;;;7.39;91.41;100330.44;5022002;28;20074;-66
2023/01/13 02:51:15;;;;;;;20.33;2.75;;;;;;;7.40;91.74;100333.91;5020933;28;20021;-66
2023/01/13 02:53:47;;;;;;;20.05;3.10;;;;;;;7.40;92.18;100344.25;5021028;28;20048;-66
2023/01/13 02:56:15;;;;;;;17.63;2.60;;;;;;;7.40;92.67;100341.66;5019693;28;20119;-66
2023/01/13 02:58:44;;;;;;;14.55;3.67;;;;;;;7.39;92.75;100337.34;5021383;28;20093;-66
2023/01/13 03:01:10;;;;;;;19.45;3.38;;;;;;;7.38;92.80;100333.00;5021109;28;20035;-66
2023/01/13 03:03:36;;;;;;;13.98;2.60;;;;;;;7.38;92.78;100328.69;5021713;28;20557;-66
2023/01/13 03:06:14;;;;;;;13.60;2.47;;;;;;;7.42;92.72;100311.50;5021342;28;20041;-66
2023/01/13 03:08:59;;;;;;;14.00;2.53;;;;;;;7.43;92.96;100319.31;5022189;28;20040;-66
2023/01/13 03:11:30;;;;;;;16.00;2.90;;;;;;;7.45;92.77;100333.19;5021724;28;20162;-66
2023/01/13 03:14:10;;;;;;;15.48;2.78;;;;;;;7.47;92.24;100313.41;5022170;28;20164;-66
2023/01/13 03:16:47;;;;;;;14.18;2.53;;;;;;;7.49;92.50;100324.66;5020123;28;20083;-66
2023/01/13 03:19:34;;;;;;;14.80;2.30;;;;;;;7.53;92.19;100320.47;5020585;28;20119;-66
2023/01/13 03:22:41;;;;;;;11.00;2.70;;;;;;;7.56;91.98;100314.47;5019227;28;20644;-66
2023/01/13 03:25:12;;;;;;;11.90;2.17;;;;;;;7.56;91.05;100317.06;4943389;28;20386;-66
2023/01/13 03:27:56;;;;;;;13.32;2.72;;;;;;;7.60;91.24;100322.38;4943707;28;20042;-66
2023/01/13 03:30:32;;;;;;;15.80;2.20;;;;;;;7.66;90.38;100316.47;4992489;28;20187;-66
2023/01/13 03:33:09;;;;;;;16.30;2.85;;;;;;;7.69;89.67;100316.56;5019931;28;20112;-66
2023/01/13 03:35:39;;;;;;;10.85;2.28;;;;;;;7.72;88.52;100327.03;5021498;28;20029;-66
2023/01/13 03:38:11;;;;;;;11.38;1.80;;;;;;;7.76;88.08;100322.78;5020833;28;20143;-66
2023/01/13 03:40:43;;;;;;;12.07;2.30;;;;;;;7.76;87.25;100318.50;5017753;28;20113;-66
2023/01/13 03:46:03;;;;;;;8.30;1.35;;;;;;;7.80;85.04;100322.03;5018963;28;20068;-66
2023/01/13 03:48:32;;;;;;;11.68;1.70;;;;;;;7.82;84.18;100315.16;5016947;28;20029;-66
2023/01/13 03:51:05;;;;;;;4.50;0.82;;;;;;;7.84;82.13;100310.91;5018142;28;20033;-66
2023/01/13 03:53:45;;;;;;;4.65;1.10;;;;;;;7.86;82.28;100309.22;5018881;28;20052;-66
2023/01/13 03:56:19;;;;;;;7.93;1.23;;;;;;;7.84;81.37;100308.31;5018801;28;20404;-66
2023/01/13 03:58:49;;;;;;;5.40;1.10;;;;;;;7.80;83.03;100314.25;5020064;28;20052;-66
2023/01/13 04:01:20;;;;;;;6.45;1.10;;;;;;;7.77;82.80;100302.06;5016099;28;20041;-66
2023/01/13 04:04:09;;;;;;;4.85;0.90;;;;;;;7.75;83.76;100311.53;5020084;28;20041;-66
2023/01/13 04:06:50;;;;;;;4.70;0.85;;;;;;;7.70;84.15;100310.53;5018335;28;20021;-66
2023/01/13 04:09:34;;;;;;;3.78;0.80;;;;;;;7.65;85.38;100318.19;5018087;28;20116;-66
2023/01/13 04:12:12;;;;;;;5.15;1.15;;;;;;;7.63;85.73;100316.38;5017758;28;20032;-66
2023/01/13 04:14:38;;;;;;;4.13;0.70;;;;;;;7.59;85.63;100320.63;5018290;28;20044;-66
2023/01/13 04:17:04;;;;;;;6.65;1.00;;;;;;;7.55;86.00;100326.56;5017439;28;20174;-66
2023/01/13 04:19:31;;;;;;;6.82;0.98;;;;;;;7.52;87.13;100330.75;5017806;28;20541;-66
2023/01/13 04:21:57;;;;;;;4.45;1.00;;;;;;;7.46;87.48;100323.72;5018469;28;20476;-66
2023/01/13 04:24:22;;;;;;;5.72;1.00;;;;;;;7.41;88.55;100349.50;5018649;28;20032;-66
2023/01/13 04:26:48;;;;;;;5.90;1.30;;;;;;;7.37;89.71;100350.28;5022366;28;20025;-66
2023/01/13 04:29:13;;;;;;;12.07;1.58;;;;;;;7.34;90.55;100354.47;5022127;28;20024;-66
2023/01/13 04:31:39;;;;;;;7.05;1.55;;;;;;;7.37;90.17;100344.19;5021660;28;20123;-66
2023/01/13 04:34:05;;;;;;;10.05;1.75;;;;;;;7.33;90.82;100345.81;5021705;28;20033;-66
2023/01/13 04:36:30;;;;;;;11.07;2.20;;;;;;;7.30;91.53;100340.56;5023224;28;20037;-66
2023/01/13 04:38:55;;;;;;;9.13;1.70;;;;;;;7.28;92.12;100342.22;5020704;28;20091;-66
2023/01/13 04:41:20;;;;;;;8.98;1.67;;;;;;;7.27;92.34;100354.31;5023020;28;20021;-66
2023/01/13 04:43:46;;;;;;;10.65;1.98;;;;;;;7.28;92.68;100342.22;5021171;28;20041;-66
2023/01/13 04:46:11;;;;;;;7.68;1.63;;;;;;;7.27;93.51;100345.63;5021414;28;20021;-66
2023/01/13 04:48:37;;;;;;;11.25;2.15;;;;;;;7.27;93.33;100345.63;5017140;28;20025;-66
2023/01/13 04:51:02;;;;;;;9.30;1.73;;;;;;;7.26;93.69;100342.16;5017589;28;20018;-66
2023/01/13 04:53:27;;;;;;;8.35;1.70;;;;;;;7.27;93.61;100343.03;5019418;28;20048;-66
2023/01/13 04:55:53;;;;;;;10.88;1.95;;;;;;;7.28;93.96;100331.84;5019426;28;20048;-66
2023/01/13 04:58:19;;;;;;;12.85;2.10;;;;;;;7.26;93.91;100323.16;5021105;28;20068;-66
2023/01/13 05:00:45;;;;;;;10.23;2.10;;;;;;;7.24;93.91;100327.41;5020513;28;20093;-66
2023/01/13 05:03:10;;;;;;;12.02;2.22;;;;;;;7.22;93.79;100313.53;5020728;28;20037;-66
2023/01/13 05:05:36;;;;;;;9.85;2.03;;;;;;;7.19;94.03;100329.00;5023087;28;20021;-66
2023/01/13 05:08:03;;;;;;;10.65;1.88;;;;;;;7.18;94.40;100312.56;5021984;28;20029;-66
2023/01/13 05:10:28;;;;;;;14.23;2.40;;;;;;;7.17;94.51;100323.78;5018055;28;20025;-66
2023/01/13 05:18:26;;;;;;;9.05;2.10;;;;;;;7.13;94.53;100307.25;5021591;28;20525;-66
2023/01/13 05:20:52;;;;;;;11.63;2.00;;;;;;;7.11;94.69;100318.38;5019968;28;20037;-66
2023/01/13 05:26:01;;;;;;;12.20;2.13;;;;;;;7.11;94.37;100327.06;5020531;28;20116;-66
2023/01/13 05:28:31;;;;;;;10.45;1.90;;;;;;;7.10;93.94;100324.44;5019624;28;20042;-68
2023/01/13 05:30:56;;;;;;;7.90;1.50;;;;;;;7.09;94.14;100320.94;5019016;28;20029;-68
2023/01/13 05:33:21;;;;;;;11.80;2.10;;;;;;;7.07;93.95;100332.97;5018440;28;20030;-66
2023/01/13 05:35:48;;;;;;;13.27;1.80;;;;;;;7.05;93.82;100323.41;5021714;28;20276;-65
2023/01/13 05:38:14;;;;;;;11.57;1.70;;;;;;;7.04;93.77;100335.50;5021652;28;20060;-65
2023/01/13 05:43:25;;;;;;;11.55;1.92;;;;;;;7.00;93.47;100353.50;5022416;28;20140;-65
2023/01/13 05:45:58;;;;;;;9.80;2.17;;;;;;;6.99;93.21;100357.78;5022782;28;20141;-65
2023/01/13 05:48:30;;;;;;;10.18;2.28;;;;;;;6.99;92.60;100347.41;5022722;28;20044;-65
2023/01/13 05:50:56;;;;;;;7.70;1.67;;;;;;;6.99;92.76;100362.94;5020913;28;20070;-65
2023/01/13 05:53:23;;;;;;;8.43;1.58;;;;;;;6.99;92.48;100360.34;5020773;28;20029;-65
2023/01/13 05:55:49;;;;;;;8.57;2.05;;;;;;;7.01;92.11;100353.53;5021830;28;20468;-65
2023/01/13 05:58:16;;;;;;;8.40;1.67;;;;;;;7.01;92.11;100350.94;5023668;28;20083;-66
2023/01/13 06:00:42;;;;;;;10.27;1.60;;;;;;;7.00;91.69;100354.34;5021055;28;20045;-65
2023/01/13 06:03:08;;;;;;;9.43;2.25;;;;;;;7.00;91.65;100367.31;5019793;28;20491;-66
2023/01/13 06:05:34;;;;;;;8.70;1.80;;;;;;;6.98;91.16;100366.41;5019722;28;20013;-65
2023/01/13 06:08:01;;;;;;;7.80;1.67;;;;;;;6.98;91.60;100371.56;5020933;28;20033;-65
2023/01/13 06:10:27;;;;;;;9.48;1.60;;;;;;;6.95;91.58;100379.22;5019023;28;20044;-65
2023/01/13 06:12:53;;;;;;;10.88;1.90;;;;;;;6.93;91.09;100379.19;5022168;28;20475;-65
2023/01/13 06:15:19;;;;;;;9.57;1.80;;;;;;;6.92;90.98;100386.91;5021545;28;20083;-65
2023/01/13 06:17:44;;;;;;;10.48;1.90;;;;;;;6.91;91.10;100396.41;5020931;28;20116;-65
2023/01/13 06:20:10;;;;;;;9.82;1.92;;;;;;;6.90;91.07;100389.44;5021276;28;20131;-65
2023/01/13 06:22:38;;;;;;;13.80;1.77;;;;;;;6.88;91.12;100388.53;5021757;28;20025;-65
2023/01/13 06:25:12;;;;;;;10.95;2.47;;;;;;;6.85;91.58;100400.50;5021462;28;20025;-65
2023/01/13 06:27:38;;;;;;;10.25;2.08;;;;;;;6.84;91.20;100406.53;5019725;28;20036;-65
2023/01/13 06:30:04;;;;;;;8.82;1.42;;;;;;;6.83;91.12;100397.00;5019038;28;20419;-65
2023/01/13 06:32:37;;;;;;;12.48;1.90;;;;;;;6.82;91.50;100400.41;5018702;28;20048;-65
2023/01/13 06:35:07;;;;;;;9.13;1.48;;;;;;;6.82;91.40;100408.16;5019256;28;20033;-65
2023/01/13 06:37:34;;;;;;;9.15;1.90;;;;;;;6.83;90.82;100407.34;5021052;28;20033;-65
2023/01/13 06:40:01;;;;;;;12.55;2.30;;;;;;;6.82;91.17;100410.75;5021235;28;20036;-65
2023/01/13 06:45:14;;;;;;;10.98;2.00;;;;;;;6.82;90.75;100405.59;5016707;28;20036;-65
2023/01/13 06:47:39;;;;;;;14.63;2.50;;;;;;;6.83;90.18;100402.16;5020170;28;20033;-65
2023/01/13 06:50:05;;;;;;;10.63;1.83;;;;;;;6.86;90.60;100402.25;5019970;28;20155;-65
2023/01/13 06:52:30;;;;;;;8.73;2.13;;;;;;;6.83;90.48;100395.28;5017857;28;20235;-65
2023/01/13 06:54:56;;;;;;;9.18;1.55;;;;;;;6.83;90.29;100397.00;5020398;28;20045;-65
2023/01/13 06:57:22;;;;;;;10.40;2.20;;;;;;;6.83;89.65;100397.00;5019354;28;20645;-65
2023/01/13 06:59:47;;;;;;;13.52;2.22;;;;;;;6.87;88.99;100389.34;5020437;28;20033;-65
2023/01/13 07:02:13;;;;;;;12.45;1.92;;;;;;;6.87;89.69;100388.50;5019705;28;20483;-65
2023/01/13 07:04:38;;;;;;;6.82;1.70;;;;;;;6.89;88.84;100400.63;5018784;28;20057;-65
2023/01/13 07:07:03;;;;;;;7.75;1.80;;;;;;;6.92;88.69;100402.44;5019646;28;20025;-65
2023/01/13 07:09:29;;;;;;;10.93;2.28;;;;;;;6.93;89.14;100410.25;5019606;28;20017;-65
2023/01/13 07:11:54;;;;;;;11.57;1.90;;;;;;;6.95;88.70;100412.91;5020920;28;20141;-65
2023/01/13 07:17:03;;;;;;;13.13;2.05;;;;;;;6.96;87.80;100409.47;5020002;28;20116;-66
2023/01/13 07:19:28;;;;;;;10.63;2.03;;;;;;;6.96;87.18;100417.25;5019021;28;20394;-65
2023/01/13 07:21:54;;;;;;;9.45;2.08;;;;;;;6.95;87.15;100413.78;5018729;28;20376;-65
2023/01/13 07:24:19;;;;;;;8.85;2.10;;;;;;;6.93;87.75;100418.03;5018991;28;20025;-65
2023/01/13 07:26:45;;;;;;;15.65;5.50;;;;;;;6.94;86.88;100426.69;5017482;28;20047;-65
2023/01/13 07:29:11;;;;;;;12.20;2.38;;;;;;;6.97;86.17;100412.13;5018832;28;20044;-65
2023/01/13 07:31:37;;;;;;;7.38;2.13;;;;;;;6.94;86.30;100396.50;5020383;28;20049;-65
2023/01/13 07:34:04;;;;;;;12.13;2.00;;;;;;;6.92;86.79;100413.69;5019875;28;20136;-65
2023/01/13 07:36:29;;;;;;;10.18;2.10;;;;;;;6.93;86.07;100417.16;5020209;28;21029;-65
2023/01/13 07:38:55;;;;;;;14.45;4.05;;;;;;;6.89;86.04;100423.94;5019227;28;20698;-65
2023/01/13 07:44:05;;;;;;;10.05;2.08;;;;;;;6.88;85.75;100434.25;5018405;28;20060;-65
2023/01/13 07:46:31;;;;;;;13.10;3.17;;;;;;;6.87;86.39;100425.63;5019449;28;20435;-65
2023/01/13 07:48:56;;;;;;;11.57;2.50;;;;;;;6.85;85.88;100447.09;5017368;28;20038;-65
2023/01/13 07:51:22;;;;;;;11.60;2.10;;;;;;;6.87;86.16;100435.09;5013252;28;20075;-65
2023/01/13 07:53:47;;;;;;;11.65;2.13;;;;;;;6.88;85.81;100442.03;5018366;28;20044;-65
2023/01/13 07:56:13;;;;;;;13.55;2.78;;;;;;;6.88;86.19;100437.75;5019731;28;20083;-65
2023/01/13 07:58:38;;;;;;;11.75;1.90;;;;;;;6.86;86.27;100448.88;5020703;28;20503;-65
2023/01/13 08:01:11;;;;;;;8.40;2.00;;;;;;;6.84;86.57;100440.19;5022731;28;20036;-65
2023/01/13 08:03:37;;;;;;;13.48;2.95;;;;;;;6.84;86.64;100440.19;5022910;28;20125;-65
2023/01/13 08:06:04;;;;;;;13.82;2.47;;;;;;;6.82;87.24;100447.00;5022527;28;20078;-65
2023/01/13 08:08:29;;;;;;;12.18;2.47;;;;;;;6.82;87.36;100447.88;5023900;28;20029;-66
2023/01/13 08:10:58;;;;;;;10.80;2.15;;;;;;;6.84;86.97;100445.38;5022696;28;20491;-65
2023/01/13 08:13:24;;;;;;;11.77;2.20;;;;;;;6.81;87.12;100445.25;5023182;28;20036;-65
2023/01/13 08:15:52;;;;;;;15.38;2.35;;;;;;;6.79;87.40;100443.50;5021925;28;20025;-65
2023/01/13 08:18:21;;;;;;;12.32;2.25;;;;;;;6.81;87.93;100450.44;5022347;28;20086;-65
2023/01/13 08:20:47;;;;;;;13.63;2.60;;;;;;;6.80;88.09;100457.31;5038646;28;20079;-65
2023/01/13 08:23:13;;;;;;;12.18;2.00;;;;;;;6.80;88.09;100454.72;5024058;28;20148;-65
2023/01/13 08:25:38;;;;;;;15.00;2.67;;;;;;;6.78;88.57;100448.63;5022912;28;20092;-66
2023/01/13 08:28:04;;;;;;;14.82;3.28;;;;;;;6.78;88.92;100457.28;5023332;28;20053;-65
2023/01/13 08:30:29;;;;;;;14.40;2.58;;;;;;;6.77;88.72;100454.63;5022804;28;20483;-65
2023/01/13 08:32:54;;;;;;;11.52;2.65;;;;;;;6.76;88.81;100453.78;5022933;28;20053;-65
2023/01/13 08:35:20;;;;;;;12.82;3.00;;;;;;;6.78;89.16;100466.75;5023390;28;20049;-65
2023/01/13 08:37:46;;;;;;;10.30;2.10;;;;;;;6.78;89.54;100454.69;5023880;28;20038;-65
2023/01/13 08:40:13;;;;;;;11.45;2.33;;;;;;;6.82;89.27;100453.06;5023122;28;20051;-65
2023/01/13 08:42:38;;;;;;;8.15;1.95;;;;;;;6.87;88.87;100455.81;5020734;28;20096;-65
2023/01/13 08:45:05;;;;;;;11.52;2.42;;;;;;;6.91;88.64;100462.88;5021787;28;20438;-65
2023/01/13 08:47:30;;;;;;;13.40;2.33;;;;;;;6.96;89.03;100469.06;5022466;28;20037;-65
2023/01/13 08:49:56;;;;;;;11.73;2.50;;;;;;;7.00;88.36;100464.88;5022650;28;20040;-65
2023/01/13 08:52:21;;;;;;;14.32;2.83;;;;;;;7.02;88.95;100465.78;5017970;28;20394;-65
2023/01/13 08:54:47;;;;;;;11.77;2.03;;;;;;;7.09;88.08;100467.75;5020409;28;20391;-65
2023/01/13 08:57:14;;;;;;;12.52;2.45;;;;;;;7.14;87.83;100466.19;5020252;28;20557;-65
2023/01/13 08:59:39;;;;;;;11.63;2.03;;;;;;;7.18;87.54;100475.78;5021487;28;20399;-65
2023/01/13 09:02:13;;;;;;;12.80;2.72;;;;;;;7.22;87.93;100479.38;5022472;28;20033;-65
2023/01/13 09:04:38;;;;;;;13.70;1.95;;;;;;;7.25;86.52;100479.47;5021634;28;20040;-66
2023/01/13 09:07:04;;;;;;;12.15;2.10;;;;;;;7.28;87.39;100484.75;5023522;28;20033;-65
2023/01/13 09:09:29;;;;;;;12.18;2.55;;;;;;;7.29;86.21;100478.72;5021988;28;20553;-65
2023/01/13 09:14:39;;;;;;;11.93;2.25;;;;;;;7.36;87.14;100503.09;5024565;28;20044;-65
2023/01/13 09:17:05;;;;;;;17.30;5.20;;;;;;;7.38;85.91;100479.00;5023854;28;20502;-65
2023/01/13 09:19:32;;;;;;;16.27;2.88;;;;;;;7.43;86.12;100498.19;5022627;28;20041;-65
2023/01/13 09:21:57;;;;;;;12.90;2.80;;;;;;;7.51;85.48;100490.63;5021222;28;20044;-65
2023/01/13 09:24:23;;;;;;;11.20;2.60;;;;;;;7.61;85.08;100504.75;5023969;28;20438;-65
2023/01/13 09:26:49;;;;;;;11.70;2.40;;;;;;;7.68;85.37;100504.09;5024159;28;20044;-65
2023/01/13 09:29:14;;;;;;;13.18;2.55;;;;;;;7.76;84.39;100502.63;5021361;28;20029;-65
2023/01/13 09:31:40;;;;;;;14.25;2.75;;;;;;;7.84;83.36;100501.13;5020862;28;20478;-66
2023/01/13 09:36:53;;;;;;;17.25;2.40;;;;;;;7.91;82.68;100514.28;5019814;28;20052;-65
2023/01/13 09:39:18;;;;;;;13.95;2.53;;;;;;;7.89;83.42;100516.81;5022346;28;20037;-65
2023/01/13 09:44:41;;;;;;;14.48;2.50;;;;;;;7.80;84.66;100522.59;5020573;28;20103;-65
2023/01/13 09:47:16;;;;;;;16.52;3.03;;;;;;;7.78;83.30;100534.66;5016632;28;20526;-65
2023/01/13 09:49:42;;;;;;;16.55;2.67;;;;;;;7.76;85.02;100530.25;5020803;28;20403;-65
2023/01/13 09:52:23;;;;;;;16.88;3.00;;;;;;;7.74;85.31;100540.59;5021322;28;20041;-66
2023/01/13 09:55:31;;;;;;;14.07;2.90;;;;;;;7.71;85.20;100521.47;5021535;28;20049;-66
2023/01/13 09:57:56;;;;;;;16.05;2.75;;;;;;;7.68;84.42;100529.16;4999331;28;20120;-66
2023/01/13 10:00:25;;;;;;;14.32;3.25;;;;;;;7.68;85.23;100531.75;5018645;28;20525;-66
2023/01/13 10:03:22;;;;;;;14.48;2.83;;;;;;;7.66;84.54;100542.06;5022552;28;20117;-66
2023/01/13 10:05:59;;;;;;;15.70;3.20;;;;;;;7.67;85.68;100546.41;5022603;28;20030;-66
2023/01/13 10:08:27;;;;;;;11.93;2.88;;;;;;;7.67;85.46;100538.63;5020461;28;20502;-66
2023/01/13 10:10:58;;;;;;;13.35;3.10;;;;;;;7.67;85.64;100541.22;5022490;28;20108;-66
2023/01/13 10:13:27;;;;;;;13.15;3.03;;;;;;;7.69;85.61;100539.59;5019118;28;20044;-66
2023/01/13 10:16:21;;;;;;;15.73;3.42;;;;;;;7.74;86.40;100548.38;5019921;28;20029;-66
2023/01/13 10:18:58;;;;;;;17.00;3.22;;;;;;;7.82;85.89;100554.69;5022653;28;20033;-66
2023/01/13 10:21:51;;;;;;;17.23;3.88;;;;;;;7.83;86.02;100556.44;5019732;28;20036;-65
2023/01/13 10:24:24;;;;;;;21.00;3.85;;;;;;;7.82;85.86;100559.88;5019978;28;20036;-66
2023/01/13 10:27:02;;;;;;;18.27;3.58;;;;;;;7.80;87.02;100547.69;5020456;28;20062;-66
2023/01/13 10:29:29;;;;;;;14.85;3.70;;;;;;;7.76;87.09;100562.28;5021370;28;20029;-66
2023/01/13 10:31:56;;;;;;;13.70;3.08;;;;;;;7.73;88.48;100564.75;5022773;28;20030;-66
2023/01/13 10:34:22;;;;;;;15.05;3.13;;;;;;;7.66;89.19;100573.19;5020111;28;20099;-66
2023/01/13 10:37:01;;;;;;;15.80;3.38;;;;;;;7.61;88.92;100566.97;5021896;28;20048;-66
2023/01/13 10:39:36;;;;;;;17.25;3.45;;;;;;;7.54;89.85;100578.00;5020952;28;20048;-67
2023/01/13 10:42:05;;;;;;;14.35;4.55;;;;;;;7.54;89.63;100584.06;5022094;28;20029;-66
2023/01/13 10:44:30;;;;;;;17.40;3.38;;;;;;;7.41;91.14;100587.09;5021840;28;20124;-66
2023/01/13 10:46:57;;;;;;;14.32;3.35;;;;;;;7.36;91.75;100597.31;5023270;28;20035;-66
2023/01/13 10:49:31;;;;;;;13.63;3.15;;;;;;;7.28;93.16;100598.75;5022297;28;20113;-66
2023/01/13 10:51:57;;;;;;;20.52;3.80;;;;;;;7.24;92.80;100592.63;5021590;28;20503;-66
2023/01/13 10:54:24;;;;;;;17.15;3.65;;;;;;;7.20;93.14;100595.03;5021471;28;20087;-65
2023/01/13 10:57:12;;;;;;;14.20;3.22;;;;;;;7.18;94.21;100594.13;5021618;28;20403;-65
2023/01/13 10:59:37;;;;;;;15.80;3.35;;;;;;;7.18;93.67;100592.38;5022164;28;20033;-65
2023/01/13 11:02:15;;;;;;;18.52;4.30;;;;;;;7.21;93.79;100594.22;5023507;28;20041;-66
2023/01/13 11:04:52;;;;;;;17.67;3.15;;;;;;;7.20;93.25;100584.66;5021947;28;20041;-65
2023/01/13 11:07:39;;;;;;;17.63;4.35;;;;;;;7.23;93.29;100587.38;5021573;28;20037;-66
2023/01/13 11:10:08;;;;;;;11.15;3.50;;;;;;;7.25;93.36;100593.50;5019294;28;20399;-66
2023/01/13 11:12:44;;;;;;;15.05;3.13;;;;;;;7.31;92.08;100601.44;5020985;28;20044;-66
2023/01/13 11:15:15;;;;;;;12.98;3.17;;;;;;;7.29;92.32;100598.81;5020757;28;20025;-65
2023/01/13 11:17:48;;;;;;;16.08;3.30;;;;;;;7.32;91.29;100598.03;5022179;28;20042;-66
2023/01/13 11:20:22;;;;;;;16.83;3.55;;;;;;;7.32;91.79;100611.88;5022735;28;20025;-66
2023/01/13 11:22:56;;;;;;;12.23;3.03;;;;;;;7.35;90.87;100590.38;5023104;28;20376;-66
2023/01/13 11:25:31;;;;;;;13.13;2.72;;;;;;;7.37;91.09;100603.38;5020185;28;20028;-66
2023/01/13 11:28:04;;;;;;;13.07;3.30;;;;;;;7.38;90.52;100605.13;5022215;28;20422;-66
2023/01/13 11:30:57;;;;;;;15.80;2.95;;;;;;;7.41;89.55;100611.28;5020175;28;20112;-66
2023/01/13 11:33:48;;;;;;;17.15;3.35;;;;;;;7.46;90.21;100609.75;5019659;28;20033;-65
2023/01/13 11:36:19;;;;;;;19.13;3.22;;;;;;;7.48;90.29;100608.06;5021200;28;20025;-65
2023/01/13 11:38:57;;;;;;;17.77;3.03;;;;;;;7.54;89.49;100614.28;5021553;28;20033;-66
2023/01/13 11:41:30;;;;;;;11.32;2.42;;;;;;;7.58;89.49;100614.44;5022117;28;20579;-66
2023/01/13 11:44:14;;;;;;;15.40;2.60;;;;;;;7.63;88.88;100622.34;5019190;28;20510;-65
2023/01/13 11:46:40;;;;;;;14.18;3.10;;;;;;;7.65;87.84;100629.34;5021192;28;20030;-66
2023/01/13 11:49:07;;;;;;;11.15;3.05;;;;;;;7.68;87.82;100622.53;5021967;28;20040;-66
2023/01/13 11:52:03;;;;;;;16.88;3.50;;;;;;;7.69;88.29;100626.84;5019391;28;20108;-66
2023/01/13 11:55:00;;;;;;;14.60;3.42;;;;;;;7.69;87.94;100625.16;5021671;28;20049;-66
2023/01/13 11:57:41;;;;;;;14.48;3.13;;;;;;;7.69;88.43;100625.16;5022226;28;20053;-65
2023/01/13 12:00:15;;;;;;;15.75;2.85;;;;;;;7.69;88.11;100622.56;5019471;28;20075;-65
2023/01/13 12:02:40;;;;;;;12.68;2.72;;;;;;;7.70;87.18;100633.81;5021279;28;20494;-66
2023/01/13 12:05:22;;;;;;;12.95;2.50;;;;;;;7.71;87.44;100618.31;5023226;28;20033;-66
2023/01/13 12:07:56;;;;;;;10.70;2.67;;;;;;;7.72;86.81;100640.81;5017538;28;20867;-65
2023/01/13 12:10:41;;;;;;;12.68;2.97;;;;;;;7.72;86.34;100646.00;5022848;28;20034;-66
2023/01/13 12:13:47;;;;;;;13.95;2.90;;;;;;;7.76;86.17;100647.88;5021556;28;20034;-66
2023/01/13 12:16:24;;;;;;;13.50;2.75;;;;;;;7.79;85.56;100647.06;5013398;28;20041;-65
2023/01/13 12:19:18;;;;;;;16.15;3.13;;;;;;;7.81;86.29;100654.06;5021753;28;20061;-65
2023/01/13 12:22:05;;;;;;;11.85;2.58;;;;;;;7.84;85.31;100659.34;5022252;28;20026;-65